KAMG/AMG METAR and TAF weather

Enter ICAO airport designator
Station Type Date Time Source
KAMG METAR 2019/08/19 11:53 UTC NOAA

KAMG 191153Z AUTO 16005KT 10SM OVC010 24/23 A3006 RMK AO2 CIG 006V015 SLP177 70107 T02390228 10239 20233 51008


Station Type Date Time Source
KAMG Decoded METAR 2019/08/19 11:53 UTC NOAA

Station name not available
Aug 19, 2019 - 07:53 AM EDT / 2019.08.19 1153 UTC
Wind: from the SSE (160 degrees) at 6 MPH (5 KT):0
Visibility: 10 mile(s):0
Sky conditions: overcast
Temperature: 75.0 F (23.9 C)
Dew Point: 73.0 F (22.8 C)
Relative Humidity: 93%
Pressure (altimeter): 30.06 in. Hg (1017 hPa)
Pressure tendency: 0.02 inches (0.8 hPa) higher than three hours ago
ob: KAMG 191153Z AUTO 16005KT 10SM OVC010 24/23 A3006 RMK AO2 CIG 006V015 SLP177 70107 T02390228 10239 20233 51008
cycle: 12

Station Type Date Time Source
KAMG TAF UTC NOAA

Error!

Example: see airport list